Time;durP1;ratioP1;P1;durP2;ratioP2;P2;SDS_P1;SDS_P2;PMS_P1;PMS_P2;Temp;Humidity;BMP_temperature;BMP_pressure;BME280_temperature;BME280_humidity;BME280_pressure;Samples;Min_cycle;Max_cycle;Signal;HPM_P1;HPM_P2
2024/01/21 00:01:20;;;;;;;8.85;5.90;;;;;;;-0.67;100.00;102365.38;5013267;28;20050;-77
2024/01/21 00:03:47;;;;;;;7.20;5.65;;;;;;;-0.67;100.00;102373.13;4972704;28;20056;-78
2024/01/21 00:06:15;;;;;;;7.43;5.88;;;;;;;-0.71;100.00;102346.13;4986057;28;20052;-78
2024/01/21 00:08:43;;;;;;;8.93;5.70;;;;;;;-0.71;100.00;102351.28;5006406;28;20056;-78
2024/01/21 00:11:10;;;;;;;8.75;5.85;;;;;;;-0.72;100.00;102357.25;5040770;28;20060;-78
2024/01/21 00:13:37;;;;;;;7.80;5.78;;;;;;;-0.74;100.00;102353.66;5000828;28;20068;-78
2024/01/21 00:16:05;;;;;;;7.78;6.18;;;;;;;-0.77;100.00;102332.75;5004772;28;20657;-78
2024/01/21 00:18:33;;;;;;;9.82;6.72;;;;;;;-0.77;100.00;102337.91;4993344;28;20045;-78
2024/01/21 00:21:01;;;;;;;10.52;6.85;;;;;;;-0.79;100.00;102327.44;4999009;28;20049;-78
2024/01/21 00:23:28;;;;;;;9.60;7.15;;;;;;;-0.79;100.00;102329.13;5029683;28;20037;-78
2024/01/21 00:25:55;;;;;;;9.13;6.63;;;;;;;-0.77;100.00;102324.06;5009798;28;20510;-78
2024/01/21 00:28:23;;;;;;;8.60;6.55;;;;;;;-0.75;100.00;102314.72;5034499;28;20124;-78
2024/01/21 00:30:51;;;;;;;9.68;7.15;;;;;;;-0.77;100.00;102316.31;5017793;28;20145;-78
2024/01/21 00:33:20;;;;;;;11.15;7.65;;;;;;;-0.77;100.00;102317.22;4999339;28;20056;-77
2024/01/21 00:35:48;;;;;;;10.63;6.97;;;;;;;-0.78;100.00;102305.03;4987034;28;20798;-77
2024/01/21 00:38:15;;;;;;;10.27;7.68;;;;;;;-0.79;100.00;102304.16;5005799;28;20049;-78
2024/01/21 00:40:42;;;;;;;12.23;6.60;;;;;;;-0.79;100.00;102303.25;5014550;28;20041;-79
2024/01/21 00:43:10;;;;;;;10.23;6.88;;;;;;;-0.81;100.00;102291.88;5017819;28;20056;-78
2024/01/21 00:45:37;;;;;;;9.95;7.35;;;;;;;-0.81;100.00;102303.13;5009495;28;20056;-78
2024/01/21 00:48:05;;;;;;;9.05;6.85;;;;;;;-0.82;100.00;102293.56;5009437;28;20057;-78
2024/01/21 00:50:33;;;;;;;10.25;7.15;;;;;;;-0.82;100.00;102283.19;4982750;28;20406;-79
2024/01/21 00:53:00;;;;;;;11.70;7.18;;;;;;;-0.82;100.00;102290.06;5010637;28;20041;-78
2024/01/21 00:55:28;;;;;;;8.95;6.28;;;;;;;-0.82;100.00;102278.03;5011656;28;20053;-78
2024/01/21 00:57:55;;;;;;;9.75;7.03;;;;;;;-0.83;100.00;102284.00;5020754;28;20056;-78
2024/01/21 01:00:25;;;;;;;10.32;7.03;;;;;;;-0.83;100.00;102272.75;5032940;28;20042;-78
2024/01/21 01:02:53;;;;;;;9.55;6.57;;;;;;;-0.83;100.00;102280.53;5018416;28;20406;-78
2024/01/21 01:05:20;;;;;;;9.48;6.90;;;;;;;-0.83;100.00;102271.06;4989282;28;20052;-77
2024/01/21 01:07:48;;;;;;;9.10;6.75;;;;;;;-0.81;100.00;102263.41;4999537;28;20700;-78
2024/01/21 01:10:15;;;;;;;11.30;7.03;;;;;;;-0.81;100.00;102269.50;5007220;28;20058;-78
2024/01/21 01:12:43;;;;;;;10.10;6.93;;;;;;;-0.80;100.00;102260.91;5001602;28;20486;-78
2024/01/21 01:15:13;;;;;;;9.15;6.55;;;;;;;-0.76;100.00;102264.63;5010501;28;20050;-77
2024/01/21 01:17:41;;;;;;;9.30;6.35;;;;;;;-0.75;100.00;102268.13;5016235;28;20045;-78
2024/01/21 01:20:09;;;;;;;10.27;6.72;;;;;;;-0.74;100.00;102267.34;5026617;28;20495;-78
2024/01/21 01:22:37;;;;;;;9.45;6.28;;;;;;;-0.71;100.00;102259.78;4984330;28;20052;-77
2024/01/21 01:25:05;;;;;;;7.65;5.80;;;;;;;-0.69;100.00;102259.09;5014914;28;20049;-78
2024/01/21 01:27:32;;;;;;;8.85;6.25;;;;;;;-0.66;100.00;102258.41;5025329;28;20046;-78
2024/01/21 01:30:00;;;;;;;9.30;6.55;;;;;;;-0.63;100.00;102245.69;5026039;28;20426;-78
2024/01/21 01:32:27;;;;;;;9.70;6.28;;;;;;;-0.60;100.00;102235.56;5015659;28;20430;-78
2024/01/21 01:34:55;;;;;;;9.70;6.13;;;;;;;-0.59;100.00;102237.34;5008543;28;20053;-77
2024/01/21 01:37:23;;;;;;;11.70;6.18;;;;;;;-0.57;100.00;102228.00;5032046;28;20391;-77
2024/01/21 01:39:50;;;;;;;12.82;6.60;;;;;;;-0.55;100.00;102216.06;5003242;28;20045;-79
2024/01/21 01:42:18;;;;;;;8.88;5.80;;;;;;;-0.55;100.00;102221.22;5025835;28;20404;-77
2024/01/21 01:44:45;;;;;;;8.05;5.90;;;;;;;-0.55;100.00;102221.22;5022081;28;20069;-79
2024/01/21 01:47:13;;;;;;;11.15;6.60;;;;;;;-0.54;100.00;102214.38;5010934;28;20045;-79
2024/01/21 01:49:42;;;;;;;8.90;6.32;;;;;;;-0.54;100.00;102202.34;4999205;28;20053;-79
2024/01/21 01:52:13;;;;;;;12.15;6.45;;;;;;;-0.53;100.00;102198.03;5025507;28;20060;-79
2024/01/21 01:54:44;;;;;;;9.13;6.13;;;;;;;-0.54;100.00;102198.84;4984460;28;20075;-78
2024/01/21 01:57:14;;;;;;;8.73;5.68;;;;;;;-0.55;100.00;102192.75;5009326;28;20509;-78
2024/01/21 01:59:41;;;;;;;7.63;5.77;;;;;;;-0.53;100.00;102187.69;5023841;28;20046;-78
2024/01/21 02:02:10;;;;;;;10.63;6.50;;;;;;;-0.52;100.00;102171.38;5031320;28;20045;-77
2024/01/21 02:04:38;;;;;;;8.30;5.95;;;;;;;-0.53;100.00;102159.19;5015902;28;20049;-78
2024/01/21 02:07:06;;;;;;;10.35;5.90;;;;;;;-0.53;100.00;102144.59;5009001;28;20494;-77
2024/01/21 02:09:33;;;;;;;10.05;6.68;;;;;;;-0.52;100.00;102132.53;4976033;28;20054;-78
2024/01/21 02:12:01;;;;;;;8.73;6.15;;;;;;;-0.54;100.00;102128.94;5029992;28;20399;-78
2024/01/21 02:14:28;;;;;;;8.82;5.82;;;;;;;-0.56;100.00;102128.81;5007525;28;20045;-79
2024/01/21 02:16:55;;;;;;;8.25;5.57;;;;;;;-0.56;99.86;102134.00;4993046;28;20054;-77
2024/01/21 02:19:26;;;;;;;12.32;5.60;;;;;;;-0.56;100.00;102125.34;5017928;28;20044;-79
2024/01/21 02:21:54;;;;;;;7.35;5.10;;;;;;;-0.58;100.00;102122.66;5026566;28;20050;-79
2024/01/21 02:24:29;;;;;;;8.70;5.80;;;;;;;-0.57;100.00;102113.19;5002038;28;20382;-79
2024/01/21 02:26:58;;;;;;;8.60;5.45;;;;;;;-0.56;100.00;102105.53;4998975;28;20041;-79
2024/01/21 02:29:26;;;;;;;7.38;5.38;;;;;;;-0.57;100.00;102093.34;4997569;28;20503;-79
2024/01/21 02:31:54;;;;;;;7.22;4.88;;;;;;;-0.57;99.03;102103.72;5008903;28;20768;-79
2024/01/21 02:34:21;;;;;;;8.52;5.15;;;;;;;-0.56;99.17;102108.13;4993074;28;20061;-78
2024/01/21 02:36:49;;;;;;;6.03;4.50;;;;;;;-0.58;98.83;102091.56;4984826;28;20092;-79
2024/01/21 02:39:16;;;;;;;6.07;4.78;;;;;;;-0.58;98.76;102089.00;5010782;28;20056;-78
2024/01/21 02:41:44;;;;;;;7.38;4.47;;;;;;;-0.61;98.79;102081.88;4980298;28;20148;-78
2024/01/21 02:44:11;;;;;;;8.05;5.10;;;;;;;-0.61;98.30;102076.72;5028095;28;20057;-79
2024/01/21 02:46:38;;;;;;;6.00;4.45;;;;;;;-0.63;96.92;102067.94;4991856;28;20053;-79
2024/01/21 02:49:06;;;;;;;7.30;5.32;;;;;;;-0.64;97.58;102067.88;5029194;28;20056;-79
2024/01/21 02:51:33;;;;;;;6.78;4.50;;;;;;;-0.65;96.46;102066.94;5002415;28;20049;-78
2024/01/21 02:54:01;;;;;;;6.47;4.53;;;;;;;-0.66;96.59;102057.41;5014825;28;20053;-78
2024/01/21 02:56:28;;;;;;;9.77;4.90;;;;;;;-0.67;97.08;102055.59;4982486;28;20072;-78
2024/01/21 02:58:56;;;;;;;7.25;4.53;;;;;;;-0.68;96.51;102048.63;5013830;28;20045;-79
2024/01/21 03:01:23;;;;;;;6.35;4.20;;;;;;;-0.67;97.63;102039.16;5012943;28;20048;-79
2024/01/21 03:03:51;;;;;;;5.82;4.25;;;;;;;-0.69;96.99;102033.88;4996371;28;20061;-79
2024/01/21 03:06:19;;;;;;;7.43;4.60;;;;;;;-0.69;97.15;102033.00;4997686;28;20041;-79
2024/01/21 03:08:46;;;;;;;6.35;4.05;;;;;;;-0.70;97.89;102029.50;4999586;28;20392;-79
2024/01/21 03:11:14;;;;;;;7.18;4.85;;;;;;;-0.70;96.62;102020.81;4983656;28;20038;-79
2024/01/21 03:13:42;;;;;;;5.22;3.72;;;;;;;-0.70;96.17;102015.66;5010899;28;20048;-79
2024/01/21 03:16:11;;;;;;;6.32;3.85;;;;;;;-0.71;95.52;102021.63;5013485;28;20052;-79
2024/01/21 03:18:38;;;;;;;5.65;4.32;;;;;;;-0.71;95.65;102007.00;5010640;28;20049;-79
2024/01/21 03:21:07;;;;;;;5.57;4.40;;;;;;;-0.69;95.21;102017.47;4997362;28;20064;-79
2024/01/21 03:23:35;;;;;;;4.13;3.65;;;;;;;-0.68;94.45;102009.81;5019313;28;20414;-79
2024/01/21 03:26:03;;;;;;;6.35;4.15;;;;;;;-0.65;93.75;102010.00;5013211;28;20056;-78
2024/01/21 03:28:30;;;;;;;5.10;4.05;;;;;;;-0.62;93.85;102006.72;4980922;28;20080;-79
2024/01/21 03:30:58;;;;;;;5.38;3.80;;;;;;;-0.61;94.25;101986.09;5010384;28;20045;-79
2024/01/21 03:33:26;;;;;;;3.90;3.50;;;;;;;-0.57;94.92;101984.59;5023736;28;20526;-79
2024/01/21 03:35:53;;;;;;;4.80;3.60;;;;;;;-0.55;93.81;101975.25;5029553;28;20068;-79
2024/01/21 03:38:21;;;;;;;4.18;3.08;;;;;;;-0.51;93.41;101971.16;5002394;28;20052;-79
2024/01/21 03:40:50;;;;;;;4.10;3.67;;;;;;;-0.49;92.90;101951.44;4995942;28;20049;-79
2024/01/21 03:43:17;;;;;;;5.65;3.30;;;;;;;-0.46;93.34;101951.66;4984201;28;20060;-78
2024/01/21 03:45:45;;;;;;;6.03;3.25;;;;;;;-0.44;93.46;101938.00;5030095;28;20056;-79
2024/01/21 03:48:12;;;;;;;3.53;3.15;;;;;;;-0.43;92.18;101926.88;5010400;28;20061;-79
2024/01/21 03:50:40;;;;;;;4.85;3.67;;;;;;;-0.42;91.53;101917.41;5029283;28;20037;-79
2024/01/21 03:53:07;;;;;;;4.93;3.20;;;;;;;-0.43;90.79;101913.91;5028237;28;20053;-79
2024/01/21 03:55:35;;;;;;;4.18;2.80;;;;;;;-0.42;92.24;101904.44;5011651;28;20057;-79
2024/01/21 03:58:03;;;;;;;4.03;3.03;;;;;;;-0.42;91.70;101900.19;4998417;28;21734;-79
2024/01/21 04:00:32;;;;;;;7.00;2.80;;;;;;;-0.42;91.63;101907.03;4997123;28;20049;-79
2024/01/21 04:02:59;;;;;;;3.83;2.72;;;;;;;-0.43;91.64;101892.31;4991581;28;20053;-79
2024/01/21 04:05:27;;;;;;;2.97;2.63;;;;;;;-0.44;91.27;101906.03;5013673;28;20046;-79
2024/01/21 04:07:54;;;;;;;4.18;2.70;;;;;;;-0.44;90.29;101901.75;5010946;28;20505;-81
2024/01/21 04:10:22;;;;;;;3.95;2.50;;;;;;;-0.44;88.77;101893.09;5017085;28;20053;-78
2024/01/21 04:12:49;;;;;;;5.90;2.65;;;;;;;-0.46;90.01;101895.59;5038180;28;20049;-79
2024/01/21 04:15:17;;;;;;;3.00;2.60;;;;;;;-0.46;90.70;101894.69;5033531;28;20049;-79
2024/01/21 04:17:44;;;;;;;3.47;2.65;;;;;;;-0.48;89.57;101876.47;5031150;28;20045;-78
2024/01/21 04:20:12;;;;;;;3.42;2.55;;;;;;;-0.49;90.93;101882.44;5047543;28;20041;-78
2024/01/21 04:22:39;;;;;;;3.15;2.60;;;;;;;-0.51;90.67;101877.97;5031914;28;20044;-78
2024/01/21 04:25:07;;;;;;;3.42;2.85;;;;;;;-0.53;90.94;101879.56;5021922;28;20053;-78
2024/01/21 04:27:36;;;;;;;3.10;2.80;;;;;;;-0.56;90.69;101869.91;5015713;28;20052;-78
2024/01/21 04:30:04;;;;;;;3.30;2.83;;;;;;;-0.57;91.93;101860.31;5015646;28;20068;-79
2024/01/21 04:32:31;;;;;;;3.88;2.85;;;;;;;-0.60;91.42;101860.16;5031144;28;20048;-79
2024/01/21 04:34:59;;;;;;;3.88;2.70;;;;;;;-0.62;91.65;101862.63;5016542;28;20525;-79
2024/01/21 04:37:26;;;;;;;3.97;2.58;;;;;;;-0.64;90.34;101848.69;5016168;28;20052;-79
2024/01/21 04:39:54;;;;;;;3.40;2.70;;;;;;;-0.65;91.66;101851.19;5043444;28;20049;-79
2024/01/21 04:42:21;;;;;;;3.10;2.40;;;;;;;-0.67;90.88;101843.31;5046985;28;20457;-79
2024/01/21 04:44:49;;;;;;;2.88;2.30;;;;;;;-0.68;92.01;101841.53;5006606;28;20048;-78
2024/01/21 04:47:17;;;;;;;3.25;2.60;;;;;;;-0.70;91.09;101845.72;5051792;28;20048;-79
2024/01/21 04:49:45;;;;;;;6.13;2.78;;;;;;;-0.69;91.46;101833.66;5029885;28;20047;-78
2024/01/21 04:52:12;;;;;;;2.92;2.55;;;;;;;-0.71;92.09;101817.16;5029868;28;20453;-79
2024/01/21 04:54:40;;;;;;;2.70;2.50;;;;;;;-0.73;91.86;101821.34;5030340;28;20777;-79
2024/01/21 04:57:07;;;;;;;3.15;2.33;;;;;;;-0.74;91.68;101801.41;5039138;28;20056;-79
2024/01/21 04:59:35;;;;;;;3.03;2.00;;;;;;;-0.74;91.15;101798.81;4991365;28;20044;-78
2024/01/21 05:02:02;;;;;;;3.30;2.22;;;;;;;-0.73;91.00;101795.44;5028446;28;20505;-79
2024/01/21 05:04:29;;;;;;;2.60;2.03;;;;;;;-0.72;91.82;101794.63;5045000;28;20044;-79
2024/01/21 05:06:57;;;;;;;3.35;2.40;;;;;;;-0.70;91.42;101791.38;5007046;28;20056;-78
2024/01/21 05:09:24;;;;;;;4.03;3.08;;;;;;;-0.67;91.15;101791.53;5013572;28;20049;-79
2024/01/21 05:11:52;;;;;;;3.70;2.10;;;;;;;-0.64;89.80;101788.28;5002200;28;20407;-79
2024/01/21 05:14:19;;;;;;;3.28;2.00;;;;;;;-0.60;89.22;101790.25;5019114;28;20399;-79
2024/01/21 05:16:46;;;;;;;2.28;1.70;;;;;;;-0.57;90.42;101795.59;5018866;28;20045;-79
2024/01/21 05:19:14;;;;;;;2.28;2.08;;;;;;;-0.56;89.06;101783.56;5028828;28;20047;-79
2024/01/21 05:21:42;;;;;;;2.20;1.90;;;;;;;-0.54;88.96;101769.03;5013951;28;20064;-80
2024/01/21 05:24:09;;;;;;;2.53;2.22;;;;;;;-0.52;88.49;101757.97;5038167;28;20396;-77
2024/01/21 05:26:44;;;;;;;2.40;2.03;;;;;;;-0.50;88.26;101760.66;5028208;28;20055;-79
2024/01/21 05:29:12;;;;;;;3.78;2.47;;;;;;;-0.46;88.20;101755.75;5039137;28;20064;-79
2024/01/21 05:31:40;;;;;;;2.20;2.00;;;;;;;-0.43;87.38;101740.41;4999287;28;20029;-78
2024/01/21 05:34:07;;;;;;;4.60;1.88;;;;;;;-0.39;87.27;101736.31;5025749;28;20053;-79
2024/01/21 05:36:35;;;;;;;2.63;1.60;;;;;;;-0.36;86.58;101733.00;5029235;28;20430;-79
2024/01/21 05:39:03;;;;;;;1.98;1.83;;;;;;;-0.32;87.30;101727.22;5036551;28;20048;-79
2024/01/21 05:41:31;;;;;;;1.92;1.80;;;;;;;-0.30;86.83;101723.00;5030048;28;20044;-79
2024/01/21 05:43:58;;;;;;;3.08;1.88;;;;;;;-0.29;85.11;101712.75;5017888;28;20060;-79
2024/01/21 05:46:26;;;;;;;2.65;1.85;;;;;;;-0.26;84.53;101712.06;4998774;28;20426;-79
2024/01/21 05:48:53;;;;;;;1.63;1.52;;;;;;;-0.25;84.43;101701.78;5012314;28;20444;-79
2024/01/21 05:51:22;;;;;;;1.52;1.42;;;;;;;-0.22;84.27;101694.19;5045875;28;20045;-79
2024/01/21 05:53:49;;;;;;;3.33;1.90;;;;;;;-0.19;83.62;101677.94;5027646;28;20045;-79
2024/01/21 05:56:18;;;;;;;3.05;1.55;;;;;;;-0.16;83.06;101688.50;5009784;28;20037;-79
2024/01/21 05:58:45;;;;;;;1.73;1.63;;;;;;;-0.13;83.14;101667.97;5017527;28;20049;-79
2024/01/21 06:01:13;;;;;;;2.45;1.73;;;;;;;-0.08;81.83;101663.03;4992626;28;20056;-79
2024/01/21 06:03:41;;;;;;;1.88;1.70;;;;;;;-0.04;81.69;101684.06;5022934;28;20498;-79
2024/01/21 06:06:08;;;;;;;3.45;1.73;;;;;;;0.01;81.59;101670.47;5010188;28;20049;-79
2024/01/21 06:08:36;;;;;;;2.05;1.67;;;;;;;0.03;80.70;101651.63;5026380;28;20041;-79
2024/01/21 06:11:03;;;;;;;2.20;2.00;;;;;;;0.05;80.54;101655.19;5007565;28;20049;-79
2024/01/21 06:13:31;;;;;;;1.83;1.52;;;;;;;0.10;80.68;101632.16;5027990;28;20410;-79
2024/01/21 06:16:00;;;;;;;2.55;2.00;;;;;;;0.11;80.64;101633.91;4988608;28;20041;-80
2024/01/21 06:18:29;;;;;;;1.70;1.60;;;;;;;0.12;78.39;101652.16;5039012;28;20054;-78
2024/01/21 06:20:57;;;;;;;2.38;2.05;;;;;;;0.16;80.63;101666.19;5024549;28;20057;-79
2024/01/21 06:23:24;;;;;;;2.88;1.65;;;;;;;0.19;79.35;101656.91;5025975;28;20063;-79
2024/01/21 06:25:51;;;;;;;4.47;1.90;;;;;;;0.23;78.49;101646.69;5023696;28;20072;-79
2024/01/21 06:28:19;;;;;;;2.10;1.90;;;;;;;0.29;79.01;101627.22;5021963;28;20045;-78
2024/01/21 06:30:46;;;;;;;2.25;2.05;;;;;;;0.33;78.02;101636.94;5006367;28;20049;-78
2024/01/21 06:33:13;;;;;;;2.25;2.05;;;;;;;0.38;79.16;101632.91;4980641;28;20518;-79
2024/01/21 06:35:41;;;;;;;2.17;1.98;;;;;;;0.43;78.33;101601.16;5028684;28;20045;-78
2024/01/21 06:38:09;;;;;;;2.67;2.20;;;;;;;0.46;77.95;101622.09;5026984;28;20061;-78
2024/01/21 06:40:36;;;;;;;2.15;2.00;;;;;;;0.48;76.54;101612.69;5023649;28;20045;-78
2024/01/21 06:43:04;;;;;;;3.67;2.63;;;;;;;0.52;76.41;101615.53;5026056;28;20061;-76
2024/01/21 06:45:31;;;;;;;2.75;2.50;;;;;;;0.56;76.25;101616.59;5010201;28;20049;-78
2024/01/21 06:47:59;;;;;;;2.33;2.10;;;;;;;0.57;74.92;101633.97;4950655;28;20084;-79
2024/01/21 06:50:27;;;;;;;3.95;2.13;;;;;;;0.59;75.29;101640.13;5005988;28;20045;-78
2024/01/21 06:52:55;;;;;;;2.58;2.15;;;;;;;0.61;75.66;101614.28;5009457;28;20053;-77
2024/01/21 06:55:22;;;;;;;4.85;2.75;;;;;;;0.60;75.11;101603.00;5010392;28;20050;-77
2024/01/21 06:57:49;;;;;;;3.78;2.15;;;;;;;0.60;76.09;101607.31;5005876;28;20053;-79
2024/01/21 07:00:18;;;;;;;6.40;3.00;;;;;;;0.58;75.46;101576.97;5011083;28;20056;-77
2024/01/21 07:02:45;;;;;;;3.83;2.88;;;;;;;0.56;75.59;101576.00;4992445;28;20053;-77
2024/01/21 07:05:13;;;;;;;2.88;2.58;;;;;;;0.54;76.12;101587.97;5020566;28;20046;-78
2024/01/21 07:07:40;;;;;;;2.95;2.50;;;;;;;0.56;75.78;101588.06;5010836;28;20057;-79
2024/01/21 07:10:08;;;;;;;3.40;2.88;;;;;;;0.54;76.36;101613.03;4992291;28;20073;-79
2024/01/21 07:12:35;;;;;;;4.93;3.10;;;;;;;0.54;76.67;101587.97;5013862;28;20041;-79
2024/01/21 07:15:03;;;;;;;3.30;2.80;;;;;;;0.56;77.45;101606.22;5008355;28;20056;-79
2024/01/21 07:17:30;;;;;;;4.25;2.88;;;;;;;0.54;77.40;101621.69;5002040;28;20046;-79
2024/01/21 07:19:58;;;;;;;4.07;3.17;;;;;;;0.52;77.05;101568.84;4963031;28;20065;-79
2024/01/21 07:22:25;;;;;;;4.93;3.10;;;;;;;0.54;76.99;101571.53;5030252;28;20056;-78
2024/01/21 07:24:53;;;;;;;5.22;3.17;;;;;;;0.53;77.56;101551.59;5012371;28;20057;-79
2024/01/21 07:27:21;;;;;;;4.65;3.40;;;;;;;0.51;77.50;101546.34;5021432;28;20076;-79
2024/01/21 07:29:49;;;;;;;4.13;3.00;;;;;;;0.50;77.37;101585.16;4993852;28;20070;-79
2024/01/21 07:32:16;;;;;;;5.18;3.30;;;;;;;0.50;77.50;101577.38;4994027;28;20064;-79
2024/01/21 07:34:44;;;;;;;5.30;3.17;;;;;;;0.51;77.33;101628.41;4963919;28;20821;-79
2024/01/21 07:37:12;;;;;;;4.00;3.40;;;;;;;0.50;77.51;101611.09;5008344;28;20052;-79
2024/01/21 07:39:39;;;;;;;4.88;3.83;;;;;;;0.50;77.83;101611.09;5015292;28;20037;-79
2024/01/21 07:42:06;;;;;;;5.20;3.38;;;;;;;0.52;78.17;101612.06;4995741;28;20049;-78
2024/01/21 07:44:34;;;;;;;4.55;3.92;;;;;;;0.51;78.83;101602.47;4994899;28;20064;-79
2024/01/21 07:47:02;;;;;;;4.00;3.60;;;;;;;0.52;78.35;101597.38;5009117;28;20049;-79
2024/01/21 07:49:29;;;;;;;5.07;3.75;;;;;;;0.52;78.21;101584.41;4957607;28;20049;-79
2024/01/21 07:51:57;;;;;;;5.10;3.95;;;;;;;0.50;78.45;101596.41;5010111;28;20429;-79
2024/01/21 07:54:24;;;;;;;7.38;4.18;;;;;;;0.51;78.51;101574.88;5010361;28;20050;-76
2024/01/21 07:56:52;;;;;;;5.47;4.00;;;;;;;0.52;77.94;101566.25;5007373;28;20037;-79
2024/01/21 07:59:19;;;;;;;7.35;4.28;;;;;;;0.53;77.44;101552.50;5006329;28;20057;-78
2024/01/21 08:01:47;;;;;;;5.40;4.22;;;;;;;0.56;78.06;101551.75;5004699;28;20042;-79
2024/01/21 08:04:14;;;;;;;5.07;4.03;;;;;;;0.57;77.98;101569.13;4967015;28;20491;-79
2024/01/21 08:06:42;;;;;;;5.68;4.38;;;;;;;0.57;78.21;101548.38;5003035;28;20396;-77
2024/01/21 08:09:09;;;;;;;8.68;4.70;;;;;;;0.57;78.30;101549.25;4991491;28;20521;-78
2024/01/21 08:11:37;;;;;;;6.45;4.25;;;;;;;0.57;78.09;101600.25;5010023;28;20423;-78
2024/01/21 08:14:05;;;;;;;6.53;4.38;;;;;;;0.60;78.12;101623.75;5001027;28;20049;-77
2024/01/21 08:16:32;;;;;;;6.57;4.45;;;;;;;0.61;77.87;101617.75;4981872;28;20045;-78
2024/01/21 08:18:59;;;;;;;6.05;4.60;;;;;;;0.61;78.25;101624.66;4999340;28;20037;-79
2024/01/21 08:21:27;;;;;;;4.60;4.15;;;;;;;0.61;78.75;101622.06;4976554;28;20053;-77
2024/01/21 08:23:54;;;;;;;8.25;4.70;;;;;;;0.60;78.46;101618.56;5008730;28;20049;-78
2024/01/21 08:26:22;;;;;;;6.43;4.65;;;;;;;0.61;79.72;101611.69;5010403;28;20411;-78
2024/01/21 08:28:49;;;;;;;5.05;4.55;;;;;;;0.59;79.41;101609.00;5005023;28;20053;-79
2024/01/21 08:31:17;;;;;;;5.60;4.47;;;;;;;0.60;79.60;101618.56;5011595;28;20088;-79
2024/01/21 08:33:44;;;;;;;7.60;4.75;;;;;;;0.61;79.62;101617.75;5011060;28;20053;-79
2024/01/21 08:36:12;;;;;;;8.02;4.13;;;;;;;0.62;79.45;101637.69;4970982;28;20837;-79
2024/01/21 08:38:39;;;;;;;5.53;4.28;;;;;;;0.65;80.20;101637.00;5011691;28;20499;-79
2024/01/21 08:41:07;;;;;;;5.07;3.90;;;;;;;0.66;80.34;101624.13;4995243;28;20057;-79
2024/01/21 08:43:34;;;;;;;5.47;4.30;;;;;;;0.66;80.14;101613.75;5005323;28;20046;-79
2024/01/21 08:46:03;;;;;;;5.22;4.00;;;;;;;0.67;80.88;101625.88;4994041;28;20049;-78
2024/01/21 08:48:31;;;;;;;4.90;3.95;;;;;;;0.69;80.24;101623.38;4993229;28;20054;-78
2024/01/21 08:51:00;;;;;;;5.88;4.43;;;;;;;0.69;81.13;101615.59;4984321;28;20052;-79
2024/01/21 08:53:27;;;;;;;5.07;4.15;;;;;;;0.69;80.93;101607.81;4976896;28;20505;-79
2024/01/21 08:55:55;;;;;;;6.07;4.63;;;;;;;0.69;81.42;101598.31;4995927;28;20049;-79
2024/01/21 08:58:22;;;;;;;5.57;4.78;;;;;;;0.68;81.97;101593.97;4989147;28;20060;-78
2024/01/21 09:00:50;;;;;;;7.43;4.85;;;;;;;0.68;81.86;101580.06;5009786;28;20053;-78
2024/01/21 09:03:18;;;;;;;6.28;4.82;;;;;;;0.69;82.25;101576.69;5006997;28;20053;-78
2024/01/21 09:05:45;;;;;;;6.25;4.15;;;;;;;0.69;81.59;101582.75;5009222;28;20045;-78
2024/01/21 09:08:13;;;;;;;6.72;4.10;;;;;;;0.72;82.60;101576.88;4957235;28;20060;-77
2024/01/21 09:10:41;;;;;;;5.20;4.38;;;;;;;0.77;83.10;101578.88;5025164;28;20045;-77
2024/01/21 09:13:08;;;;;;;7.22;5.10;;;;;;;0.81;82.19;101592.91;4994001;28;20049;-78
2024/01/21 09:15:36;;;;;;;6.53;4.40;;;;;;;0.86;83.20;101585.38;5006950;28;20501;-77
2024/01/21 09:18:04;;;;;;;5.53;4.10;;;;;;;0.86;82.68;101590.56;5014158;28;20593;-77
2024/01/21 09:20:31;;;;;;;6.50;4.53;;;;;;;0.86;83.25;101599.25;4983785;28;20056;-78
2024/01/21 09:22:59;;;;;;;8.07;4.72;;;;;;;0.87;82.93;101597.53;4928171;28;20049;-78
2024/01/21 09:25:26;;;;;;;6.72;3.92;;;;;;;0.88;82.81;101610.59;5007090;28;20054;-77
2024/01/21 09:27:54;;;;;;;4.75;4.25;;;;;;;0.88;83.06;101612.31;5005431;28;20041;-77
2024/01/21 09:30:21;;;;;;;8.18;4.43;;;;;;;0.92;83.47;101611.66;4984624;28;20052;-78
2024/01/21 09:32:50;;;;;;;5.80;4.70;;;;;;;0.97;84.02;101611.09;4992565;28;20049;-78
2024/01/21 09:35:17;;;;;;;6.57;4.25;;;;;;;1.03;84.02;101610.53;4997661;28;20049;-77
2024/01/21 09:37:45;;;;;;;5.53;4.10;;;;;;;1.11;84.72;101608.34;5023242;28;20041;-77
2024/01/21 09:40:12;;;;;;;6.28;4.60;;;;;;;1.15;84.44;101613.81;4979625;28;20517;-77
2024/01/21 09:42:40;;;;;;;5.40;4.50;;;;;;;1.15;84.87;101605.13;5005827;28;20057;-78
2024/01/21 09:45:10;;;;;;;5.60;4.32;;;;;;;1.17;85.10;101590.50;5002031;28;20045;-77
2024/01/21 09:47:38;;;;;;;6.45;5.18;;;;;;;1.17;86.46;101586.22;4994606;28;20049;-77
2024/01/21 09:50:07;;;;;;;6.00;4.30;;;;;;;1.21;85.89;101588.97;5018029;28;20052;-77
2024/01/21 09:52:34;;;;;;;5.57;4.65;;;;;;;1.20;86.62;101576.81;5006531;28;20053;-77
2024/01/21 09:55:02;;;;;;;5.57;4.20;;;;;;;1.23;87.34;101592.53;4954456;28;20053;-77
2024/01/21 09:57:30;;;;;;;7.25;5.03;;;;;;;1.24;87.29;101586.53;5003776;28;20044;-77
2024/01/21 09:59:58;;;;;;;4.93;4.47;;;;;;;1.26;87.27;101583.19;5004998;28;20057;-77
2024/01/21 10:02:26;;;;;;;5.80;4.97;;;;;;;1.29;87.57;101588.56;5001564;28;20054;-77
2024/01/21 10:04:54;;;;;;;6.78;4.38;;;;;;;1.34;87.95;101606.97;5004979;28;20049;-77
2024/01/21 10:07:23;;;;;;;6.90;4.57;;;;;;;1.41;88.16;101610.81;5016072;28;20052;-77
2024/01/21 10:09:57;;;;;;;8.70;5.80;;;;;;;1.42;88.59;101616.09;4952990;28;20654;-77
2024/01/21 10:12:25;;;;;;;6.10;5.30;;;;;;;1.45;88.88;101608.44;4987804;28;20407;-78
2024/01/21 10:14:52;;;;;;;12.45;7.55;;;;;;;1.47;88.62;101606.81;4995684;28;21630;-77
2024/01/21 10:17:24;;;;;;;7.68;5.68;;;;;;;1.47;88.85;101599.00;4992262;28;20049;-78
2024/01/21 10:19:57;;;;;;;7.65;5.50;;;;;;;1.48;88.95;101595.63;4978398;28;20056;-78
2024/01/21 10:22:25;;;;;;;6.40;5.38;;;;;;;1.48;88.60;101584.34;5004176;28;20053;-78
2024/01/21 10:24:53;;;;;;;7.05;5.50;;;;;;;1.50;89.84;101594.00;4969333;28;20749;-78
2024/01/21 10:27:21;;;;;;;6.95;5.40;;;;;;;1.52;89.64;101602.75;4933523;28;20100;-77
2024/01/21 10:29:48;;;;;;;8.55;5.68;;;;;;;1.55;89.92;101599.41;4973773;28;20080;-78
2024/01/21 10:32:17;;;;;;;9.48;5.60;;;;;;;1.63;90.58;101589.44;4975556;28;20069;-78
2024/01/21 10:34:50;;;;;;;6.22;4.97;;;;;;;1.68;90.96;101594.06;4987107;28;20034;-78
2024/01/21 10:37:19;;;;;;;5.32;4.80;;;;;;;1.75;91.63;101580.53;4962864;28;20049;-78
2024/01/21 10:39:48;;;;;;;6.65;5.32;;;;;;;1.82;91.75;101576.56;4978007;28;20054;-77
2024/01/21 10:42:16;;;;;;;12.75;7.05;;;;;;;1.88;91.53;101587.25;4959525;28;20041;-77
2024/01/21 10:44:45;;;;;;;8.75;6.60;;;;;;;1.92;92.61;101585.72;4988358;28;20050;-77
2024/01/21 10:47:15;;;;;;;6.28;4.82;;;;;;;1.95;92.94;101578.06;4994581;28;20053;-78
2024/01/21 10:49:45;;;;;;;6.65;5.78;;;;;;;2.01;93.63;101587.88;4979764;28;20049;-77
2024/01/21 10:52:16;;;;;;;6.97;5.20;;;;;;;2.06;94.57;101575.97;4979637;28;20065;-78
2024/01/21 10:54:44;;;;;;;7.78;4.90;;;;;;;2.09;95.56;101586.53;4972159;28;20042;-78
2024/01/21 10:57:13;;;;;;;8.95;5.85;;;;;;;2.10;95.03;101572.75;4973092;28;20062;-78
2024/01/21 10:59:42;;;;;;;6.68;4.97;;;;;;;2.14;95.86;101595.47;4970959;28;20130;-78
2024/01/21 11:02:10;;;;;;;7.55;5.30;;;;;;;2.13;97.33;101578.06;4978091;28;20046;-77
2024/01/21 11:04:38;;;;;;;7.15;5.43;;;;;;;2.14;97.52;101575.56;4988255;28;20038;-78
2024/01/21 11:07:06;;;;;;;7.57;5.95;;;;;;;2.17;97.94;101574.81;4985639;28;20069;-78
2024/01/21 11:09:36;;;;;;;8.18;5.30;;;;;;;2.17;98.56;101584.31;5003668;28;20494;-78
2024/01/21 11:12:04;;;;;;;11.48;6.38;;;;;;;2.17;98.53;101580.00;4990577;28;20061;-78
2024/01/21 11:14:36;;;;;;;7.65;6.00;;;;;;;2.17;99.62;101574.81;4990724;28;20038;-79
2024/01/21 11:17:04;;;;;;;8.23;5.43;;;;;;;2.19;100.00;101565.38;5013497;28;20053;-80
2024/01/21 11:19:47;;;;;;;8.60;5.93;;;;;;;2.23;100.00;101556.00;5009350;28;20072;-78
2024/01/21 11:22:16;;;;;;;9.27;6.68;;;;;;;2.24;100.00;101569.09;5005285;28;20044;-78
2024/01/21 11:24:48;;;;;;;9.45;6.53;;;;;;;2.28;100.00;101572.72;5003757;28;20056;-77
2024/01/21 11:27:17;;;;;;;11.80;6.80;;;;;;;2.29;100.00;101564.13;5003686;28;20068;-76
2024/01/21 11:29:45;;;;;;;8.07;6.05;;;;;;;2.31;100.00;101572.91;4984875;28;20049;-76